sensor_id;sensor_type;location;lat;lon;timestamp;pressure;altitude;pressure_sealevel;temperature;humidity
48216;BME280;34005;48.844;10.098;2023-05-20T07:09:53;96646.44;;;20.45;49.66
48216;BME280;34005;48.844;10.098;2023-05-20T07:12:24;96656.41;;;19.59;50.78
48216;BME280;34005;48.844;10.098;2023-05-20T10:52:06;96537.06;;;21.80;45.65
48216;BME280;34005;48.844;10.098;2023-05-20T10:54:35;96530.78;;;21.92;45.94
48216;BME280;34005;48.844;10.098;2023-05-20T10:57:05;96536.97;;;22.08;44.62
48216;BME280;34005;48.844;10.098;2023-05-20T10:59:35;96537.25;;;22.11;43.33
48216;BME280;34005;48.844;10.098;2023-05-20T11:02:03;96522.38;;;22.10;43.42
48216;BME280;34005;48.844;10.098;2023-05-20T11:04:31;96521.59;;;22.15;44.09
48216;BME280;34005;48.844;10.098;2023-05-20T11:06:58;96510.75;;;22.21;43.72
48216;BME280;34005;48.844;10.098;2023-05-20T11:09:27;96514.56;;;22.31;44.13
48216;BME280;34005;48.844;10.098;2023-05-20T11:11:57;96515.13;;;22.38;44.23
48216;BME280;34005;48.844;10.098;2023-05-20T11:14:27;96506.34;;;22.42;43.92
48216;BME280;34005;48.844;10.098;2023-05-20T11:16:55;96497.09;;;22.50;44.87
48216;BME280;34005;48.844;10.098;2023-05-20T11:19:24;96504.00;;;22.56;43.74
48216;BME280;34005;48.844;10.098;2023-05-20T11:21:52;96502.16;;;22.57;43.52
48216;BME280;34005;48.844;10.098;2023-05-20T11:24:24;96499.22;;;22.58;42.27
48216;BME280;34005;48.844;10.098;2023-05-20T11:26:55;96500.84;;;22.59;42.81
48216;BME280;34005;48.844;10.098;2023-05-20T11:29:25;96506.16;;;22.59;42.79
48216;BME280;34005;48.844;10.098;2023-05-20T11:31:54;96504.56;;;22.58;42.12
48216;BME280;34005;48.844;10.098;2023-05-20T11:34:22;96503.50;;;22.54;42.73
48216;BME280;34005;48.844;10.098;2023-05-20T11:36:55;96501.09;;;22.53;42.37
48216;BME280;34005;48.844;10.098;2023-05-20T11:39:23;96504.53;;;22.53;42.49
48216;BME280;34005;48.844;10.098;2023-05-20T11:41:53;96502.97;;;22.52;45.63
48216;BME280;34005;48.844;10.098;2023-05-20T11:44:21;96497.88;;;22.51;42.36
48216;BME280;34005;48.844;10.098;2023-05-20T11:46:48;96501.09;;;22.53;42.12
48216;BME280;34005;48.844;10.098;2023-05-20T11:49:16;96500.84;;;22.54;46.96
48216;BME280;34005;48.844;10.098;2023-05-20T11:51:44;96490.97;;;22.50;42.67
48216;BME280;34005;48.844;10.098;2023-05-20T11:54:12;96492.03;;;22.49;42.37
48216;BME280;34005;48.844;10.098;2023-05-20T11:56:39;96494.41;;;22.45;44.54
48216;BME280;34005;48.844;10.098;2023-05-20T11:59:09;96482.97;;;22.45;43.58
48216;BME280;34005;48.844;10.098;2023-05-20T12:01:38;96496.03;;;22.46;46.85
48216;BME280;34005;48.844;10.098;2023-05-20T12:04:06;96484.84;;;22.49;44.21
48216;BME280;34005;48.844;10.098;2023-05-20T12:06:34;96481.16;;;22.50;42.98
48216;BME280;34005;48.844;10.098;2023-05-20T12:09:04;96479.00;;;22.47;42.39
48216;BME280;34005;48.844;10.098;2023-05-20T12:11:35;96476.34;;;22.47;47.00
48216;BME280;34005;48.844;10.098;2023-05-20T12:14:03;96474.75;;;22.46;43.73
48216;BME280;34005;48.844;10.098;2023-05-20T12:16:33;96476.34;;;22.42;43.35
48216;BME280;34005;48.844;10.098;2023-05-20T12:19:01;96475.78;;;22.35;43.68
48216;BME280;34005;48.844;10.098;2023-05-20T12:21:29;96474.16;;;22.29;46.12
48216;BME280;34005;48.844;10.098;2023-05-20T12:23:57;96470.38;;;22.19;43.92
48216;BME280;34005;48.844;10.098;2023-05-20T12:26:27;96467.66;;;22.09;44.27
48216;BME280;34005;48.844;10.098;2023-05-20T12:28:55;96481.97;;;22.03;45.07
48216;BME280;34005;48.844;10.098;2023-05-20T12:31:23;96472.91;;;21.99;43.38
48216;BME280;34005;48.844;10.098;2023-05-20T12:33:53;96473.69;;;21.94;44.91
48216;BME280;34005;48.844;10.098;2023-05-20T12:36:20;96470.22;;;21.89;42.72
48216;BME280;34005;48.844;10.098;2023-05-20T12:38:48;96475.47;;;21.84;43.00
48216;BME280;34005;48.844;10.098;2023-05-20T12:41:16;96473.84;;;21.77;44.63
48216;BME280;34005;48.844;10.098;2023-05-20T12:43:43;96475.69;;;21.72;47.76
48216;BME280;34005;48.844;10.098;2023-05-20T12:46:11;96471.69;;;21.69;45.83
48216;BME280;34005;48.844;10.098;2023-05-20T12:48:39;96479.09;;;21.67;48.12
48216;BME280;34005;48.844;10.098;2023-05-20T12:51:09;96477.50;;;21.66;46.44
48216;BME280;34005;48.844;10.098;2023-05-20T12:53:37;96482.00;;;21.66;47.31
48216;BME280;34005;48.844;10.098;2023-05-20T12:56:05;96476.69;;;21.66;47.67
48216;BME280;34005;48.844;10.098;2023-05-20T12:58:33;96468.72;;;21.66;49.06
48216;BME280;34005;48.844;10.098;2023-05-20T13:01:01;96470.88;;;21.69;46.55
48216;BME280;34005;48.844;10.098;2023-05-20T13:03:28;96464.53;;;21.75;49.60
48216;BME280;34005;48.844;10.098;2023-05-20T13:05:56;96480.53;;;21.80;47.07
48216;BME280;34005;48.844;10.098;2023-05-20T13:08:51;96465.41;;;21.86;45.98
48216;BME280;34005;48.844;10.098;2023-05-20T13:11:48;96465.47;;;21.96;45.46
48216;BME280;34005;48.844;10.098;2023-05-20T13:14:18;96458.06;;;22.03;45.87
48216;BME280;34005;48.844;10.098;2023-05-20T13:16:47;96462.91;;;22.16;45.07
48216;BME280;34005;48.844;10.098;2023-05-20T13:19:15;96455.50;;;22.24;43.76
48216;BME280;34005;48.844;10.098;2023-05-20T13:21:43;96462.44;;;22.30;43.69
48216;BME280;34005;48.844;10.098;2023-05-20T13:24:12;96459.28;;;22.33;43.53
48216;BME280;34005;48.844;10.098;2023-05-20T13:26:40;96455.84;;;22.37;44.19
48216;BME280;34005;48.844;10.098;2023-05-20T13:29:07;96457.72;;;22.42;44.21
48216;BME280;34005;48.844;10.098;2023-05-20T13:31:35;96452.41;;;22.42;43.50
48216;BME280;34005;48.844;10.098;2023-05-20T13:34:03;96441.25;;;22.40;43.61
48216;BME280;34005;48.844;10.098;2023-05-20T13:36:32;96443.63;;;22.36;43.57
48216;BME280;34005;48.844;10.098;2023-05-20T13:38:59;96450.00;;;22.30;44.42
48216;BME280;34005;48.844;10.098;2023-05-20T13:41:28;96439.06;;;22.27;43.20
48216;BME280;34005;48.844;10.098;2023-05-20T13:43:56;96434.03;;;22.30;43.57
48216;BME280;34005;48.844;10.098;2023-05-20T13:46:24;96436.19;;;22.38;44.63
48216;BME280;34005;48.844;10.098;2023-05-20T13:48:51;96435.69;;;22.52;44.32
48216;BME280;34005;48.844;10.098;2023-05-20T13:51:19;96425.09;;;22.62;43.48
48216;BME280;34005;48.844;10.098;2023-05-20T13:53:47;96430.16;;;22.69;43.44
48216;BME280;34005;48.844;10.098;2023-05-20T13:56:14;96426.44;;;22.70;43.33
48216;BME280;34005;48.844;10.098;2023-05-20T13:58:43;96419.78;;;22.72;43.44
48216;BME280;34005;48.844;10.098;2023-05-20T14:01:12;96425.38;;;22.76;43.70
48216;BME280;34005;48.844;10.098;2023-05-20T14:03:40;96413.94;;;22.75;43.27
48216;BME280;34005;48.844;10.098;2023-05-20T14:06:09;96417.94;;;22.73;43.44
48216;BME280;34005;48.844;10.098;2023-05-20T14:08:36;96398.78;;;22.66;43.65
48216;BME280;34005;48.844;10.098;2023-05-20T14:11:04;96395.59;;;22.63;43.68
48216;BME280;34005;48.844;10.098;2023-05-20T14:13:32;96399.56;;;22.61;43.95
48216;BME280;34005;48.844;10.098;2023-05-20T14:16:01;96403.53;;;22.58;43.86
48216;BME280;34005;48.844;10.098;2023-05-20T14:18:29;96395.31;;;22.55;44.42
48216;BME280;34005;48.844;10.098;2023-05-20T14:20:56;96398.22;;;22.53;45.97
48216;BME280;34005;48.844;10.098;2023-05-20T14:23:24;96392.34;;;22.51;45.26
48216;BME280;34005;48.844;10.098;2023-05-20T14:25:52;96383.06;;;22.49;44.07
48216;BME280;34005;48.844;10.098;2023-05-20T14:28:20;96372.69;;;22.47;44.36
48216;BME280;34005;48.844;10.098;2023-05-20T14:30:47;96377.75;;;22.49;43.82
48216;BME280;34005;48.844;10.098;2023-05-20T14:33:16;96375.88;;;22.49;43.60
48216;BME280;34005;48.844;10.098;2023-05-20T14:35:44;96369.50;;;22.50;43.30
48216;BME280;34005;48.844;10.098;2023-05-20T14:38:12;96365.50;;;22.48;43.64
48216;BME280;34005;48.844;10.098;2023-05-20T14:40:40;96362.06;;;22.47;42.90
48216;BME280;34005;48.844;10.098;2023-05-20T14:43:07;96355.69;;;22.48;43.09
48216;BME280;34005;48.844;10.098;2023-05-20T14:45:35;96357.28;;;22.49;43.13
48216;BME280;34005;48.844;10.098;2023-05-20T14:48:03;96348.25;;;22.50;43.66
48216;BME280;34005;48.844;10.098;2023-05-20T14:50:33;96348.78;;;22.52;43.46
48216;BME280;34005;48.844;10.098;2023-05-20T14:53:01;96346.13;;;22.52;43.13
48216;BME280;34005;48.844;10.098;2023-05-20T14:55:29;96347.44;;;22.50;43.88
48216;BME280;34005;48.844;10.098;2023-05-20T14:57:57;96362.84;;;22.48;42.84
48216;BME280;34005;48.844;10.098;2023-05-20T15:00:24;96355.41;;;22.45;42.22
48216;BME280;34005;48.844;10.098;2023-05-20T15:02:52;96353.28;;;22.41;41.48
48216;BME280;34005;48.844;10.098;2023-05-20T15:05:21;96346.91;;;22.37;42.10
48216;BME280;34005;48.844;10.098;2023-05-20T15:07:50;96348.75;;;22.37;42.34
48216;BME280;34005;48.844;10.098;2023-05-20T15:10:18;96359.41;;;22.37;42.66
48216;BME280;34005;48.844;10.098;2023-05-20T15:12:45;96354.59;;;22.39;43.74
48216;BME280;34005;48.844;10.098;2023-05-20T15:15:13;96351.41;;;22.37;47.01
48216;BME280;34005;48.844;10.098;2023-05-20T15:17:41;96353.00;;;22.38;44.29
48216;BME280;34005;48.844;10.098;2023-05-20T15:20:09;96362.06;;;22.42;44.53
48216;BME280;34005;48.844;10.098;2023-05-20T15:22:37;96359.94;;;22.44;45.46
48216;BME280;34005;48.844;10.098;2023-05-20T15:25:06;96363.66;;;22.48;42.88
48216;BME280;34005;48.844;10.098;2023-05-20T15:27:34;96362.59;;;22.49;42.05
48216;BME280;34005;48.844;10.098;2023-05-20T15:30:02;96360.47;;;22.46;45.14
48216;BME280;34005;48.844;10.098;2023-05-20T15:32:30;96363.63;;;22.43;42.55
48216;BME280;34005;48.844;10.098;2023-05-20T15:34:58;96363.63;;;22.43;42.49
48216;BME280;34005;48.844;10.098;2023-05-20T15:37:28;96352.22;;;22.42;41.56
48216;BME280;34005;48.844;10.098;2023-05-20T15:39:55;96357.53;;;22.42;41.22
48216;BME280;34005;48.844;10.098;2023-05-20T15:42:24;96365.25;;;22.44;42.45
48216;BME280;34005;48.844;10.098;2023-05-20T15:44:52;96351.41;;;22.42;42.50
48216;BME280;34005;48.844;10.098;2023-05-20T15:47:20;96352.75;;;22.39;42.14
48216;BME280;34005;48.844;10.098;2023-05-20T15:49:47;96348.47;;;22.38;41.22
48216;BME280;34005;48.844;10.098;2023-05-20T15:52:15;96361.78;;;22.38;41.25
48216;BME280;34005;48.844;10.098;2023-05-20T15:54:43;96360.44;;;22.41;41.75
48216;BME280;34005;48.844;10.098;2023-05-20T15:57:10;96361.78;;;22.38;43.70
48216;BME280;34005;48.844;10.098;2023-05-20T15:59:39;96366.81;;;22.40;42.66
48216;BME280;34005;48.844;10.098;2023-05-20T16:02:07;96365.75;;;22.41;42.70
48216;BME280;34005;48.844;10.098;2023-05-20T16:04:35;96353.81;;;22.44;42.60
48216;BME280;34005;48.844;10.098;2023-05-20T16:07:03;96355.41;;;22.45;42.55
48216;BME280;34005;48.844;10.098;2023-05-20T16:09:31;96364.16;;;22.45;42.05
48216;BME280;34005;48.844;10.098;2023-05-20T16:11:59;96353.81;;;22.44;42.32
48216;BME280;34005;48.844;10.098;2023-05-20T16:14:27;96352.22;;;22.42;41.83
48216;BME280;34005;48.844;10.098;2023-05-20T16:16:56;96360.44;;;22.41;41.42
48216;BME280;34005;48.844;10.098;2023-05-20T16:19:24;96356.44;;;22.38;41.40
48216;BME280;34005;48.844;10.098;2023-05-20T16:21:52;96354.09;;;22.37;42.26
48216;BME280;34005;48.844;10.098;2023-05-20T16:24:19;96339.19;;;22.36;41.65
48216;BME280;34005;48.844;10.098;2023-05-20T16:26:47;96343.16;;;22.33;41.30
48216;BME280;34005;48.844;10.098;2023-05-20T16:29:15;96347.69;;;22.33;42.60
48216;BME280;34005;48.844;10.098;2023-05-20T16:31:42;96352.72;;;22.29;41.74
48216;BME280;34005;48.844;10.098;2023-05-20T16:34:14;96354.03;;;22.27;41.25
48216;BME280;34005;48.844;10.098;2023-05-20T16:36:42;96346.34;;;22.25;40.77
48216;BME280;34005;48.844;10.098;2023-05-20T16:39:11;96347.13;;;22.26;41.86
48216;BME280;34005;48.844;10.098;2023-05-20T16:41:39;96352.44;;;22.26;41.23
48216;BME280;34005;48.844;10.098;2023-05-20T16:44:07;96350.84;;;22.25;43.31
48216;BME280;34005;48.844;10.098;2023-05-20T16:46:35;96353.75;;;22.23;40.81
48216;BME280;34005;48.844;10.098;2023-05-20T16:49:03;96356.66;;;22.21;41.78
48216;BME280;34005;48.844;10.098;2023-05-20T16:51:32;96365.69;;;22.20;40.36
48216;BME280;34005;48.844;10.098;2023-05-20T16:54:00;96366.75;;;22.19;40.65
48216;BME280;34005;48.844;10.098;2023-05-20T16:56:27;96367.00;;;22.18;40.72
48216;BME280;34005;48.844;10.098;2023-05-20T16:58:55;96367.25;;;22.16;40.94
48216;BME280;34005;48.844;10.098;2023-05-20T17:01:23;96367.25;;;22.16;40.71
48216;BME280;34005;48.844;10.098;2023-05-20T17:03:50;96369.38;;;22.14;40.76
48216;BME280;34005;48.844;10.098;2023-05-20T17:06:18;96371.50;;;22.12;41.19
48216;BME280;34005;48.844;10.098;2023-05-20T17:08:47;96374.69;;;22.09;41.82
48216;BME280;34005;48.844;10.098;2023-05-20T17:11:16;96369.63;;;22.08;41.19
48216;BME280;34005;48.844;10.098;2023-05-20T17:13:43;96366.16;;;22.02;41.23
48216;BME280;34005;48.844;10.098;2023-05-20T17:16:11;96362.97;;;22.00;41.67
48216;BME280;34005;48.844;10.098;2023-05-20T17:18:39;96371.19;;;21.98;42.36
48216;BME280;34005;48.844;10.098;2023-05-20T17:21:07;96371.44;;;21.97;42.31
48216;BME280;34005;48.844;10.098;2023-05-20T17:23:34;96370.13;;;21.94;42.19
48216;BME280;34005;48.844;10.098;2023-05-20T17:26:03;96386.28;;;21.93;42.68
48216;BME280;34005;48.844;10.098;2023-05-20T17:28:31;96385.75;;;21.91;45.16
48216;BME280;34005;48.844;10.098;2023-05-20T17:30:59;96390.56;;;21.89;43.03
48216;BME280;34005;48.844;10.098;2023-05-20T17:33:26;96385.75;;;21.86;42.55
48216;BME280;34005;48.844;10.098;2023-05-20T17:35:54;96382.03;;;21.87;42.37
48216;BME280;34005;48.844;10.098;2023-05-20T17:38:22;96380.44;;;21.86;42.89
48216;BME280;34005;48.844;10.098;2023-05-20T17:40:51;96384.16;;;21.85;43.06
48216;BME280;34005;48.844;10.098;2023-05-20T17:43:20;96383.63;;;21.83;43.22
48216;BME280;34005;48.844;10.098;2023-05-20T17:45:50;96392.63;;;21.81;43.34
48216;BME280;34005;48.844;10.098;2023-05-20T17:48:18;96392.09;;;21.79;42.94
48216;BME280;34005;48.844;10.098;2023-05-20T17:50:46;96396.06;;;21.77;43.96
48216;BME280;34005;48.844;10.098;2023-05-20T17:53:13;96389.41;;;21.74;44.33
48216;BME280;34005;48.844;10.098;2023-05-20T17:55:41;96394.69;;;21.69;47.42
48216;BME280;34005;48.844;10.098;2023-05-20T17:58:12;96388.03;;;21.67;44.77
48216;BME280;34005;48.844;10.098;2023-05-20T18:00:41;96393.06;;;21.63;44.59
48216;BME280;34005;48.844;10.098;2023-05-20T18:03:09;96400.50;;;21.61;44.62
48216;BME280;34005;48.844;10.098;2023-05-20T18:05:36;96408.16;;;21.57;44.72
48216;BME280;34005;48.844;10.098;2023-05-20T18:08:04;96405.22;;;21.54;45.08
48216;BME280;34005;48.844;10.098;2023-05-20T18:10:32;96407.84;;;21.49;48.00
48216;BME280;34005;48.844;10.098;2023-05-20T18:13:00;96400.41;;;21.46;45.24
48216;BME280;34005;48.844;10.098;2023-05-20T18:15:27;96401.97;;;21.42;48.32
48216;BME280;34005;48.844;10.098;2023-05-20T18:17:56;96392.34;;;21.35;46.54
48216;BME280;34005;48.844;10.098;2023-05-20T18:20:24;96391.25;;;21.31;46.07
48216;BME280;34005;48.844;10.098;2023-05-20T18:22:52;96391.22;;;21.26;46.18
48216;BME280;34005;48.844;10.098;2023-05-20T18:38:05;96389.88;;;20.91;46.99
48216;BME280;34005;48.844;10.098;2023-05-20T18:40:33;96394.34;;;20.86;47.55
48216;BME280;34005;48.844;10.098;2023-05-20T18:43:01;96397.75;;;20.81;48.25
48216;BME280;34005;48.844;10.098;2023-05-20T18:45:29;96398.50;;;20.76;48.94
48216;BME280;34005;48.844;10.098;2023-05-20T18:47:56;96399.78;;;20.69;48.89
48216;BME280;34005;48.844;10.098;2023-05-20T18:50:25;96400.78;;;20.63;51.15
48216;BME280;34005;48.844;10.098;2023-05-20T18:52:53;96392.78;;;20.57;48.05
48216;BME280;34005;48.844;10.098;2023-05-20T18:55:23;96402.50;;;20.52;47.39
48216;BME280;34005;48.844;10.098;2023-05-20T18:57:53;96401.63;;;20.46;47.55
48216;BME280;34005;48.844;10.098;2023-05-20T19:00:21;96405.03;;;20.42;49.11
48216;BME280;34005;48.844;10.098;2023-05-20T19:02:49;96397.03;;;20.36;48.92
48216;BME280;34005;48.844;10.098;2023-05-20T19:05:17;96404.94;;;20.31;49.18
48216;BME280;34005;48.844;10.098;2023-05-20T19:07:46;96401.41;;;20.26;49.62
48216;BME280;34005;48.844;10.098;2023-05-20T19:10:14;96395.53;;;20.19;49.70
48216;BME280;34005;48.844;10.098;2023-05-20T19:12:44;96409.75;;;20.12;50.06
48216;BME280;34005;48.844;10.098;2023-05-20T19:15:12;96404.88;;;20.04;50.19
48216;BME280;34005;48.844;10.098;2023-05-20T19:17:41;96409.78;;;19.95;50.62
48216;BME280;34005;48.844;10.098;2023-05-20T19:20:17;96410.22;;;19.87;50.89
48216;BME280;34005;48.844;10.098;2023-05-20T19:23:03;96407.47;;;19.77;51.04
48216;BME280;34005;48.844;10.098;2023-05-20T19:25:33;96409.69;;;19.68;50.98
48216;BME280;34005;48.844;10.098;2023-05-20T19:28:22;96413.25;;;19.57;50.82
48216;BME280;34005;48.844;10.098;2023-05-20T19:30:52;96411.56;;;19.51;51.74
48216;BME280;34005;48.844;10.098;2023-05-20T19:35:59;96420.56;;;19.33;52.55
48216;BME280;34005;48.844;10.098;2023-05-20T19:38:33;96417.53;;;19.24;52.38
48216;BME280;34005;48.844;10.098;2023-05-20T20:03:36;96436.94;;;18.56;55.45
48216;BME280;34005;48.844;10.098;2023-05-20T20:06:04;96423.09;;;18.48;54.69
48216;BME280;34005;48.844;10.098;2023-05-20T20:08:32;96426.19;;;18.45;57.18
48216;BME280;34005;48.844;10.098;2023-05-20T20:10:59;96421.03;;;18.39;55.25
48216;BME280;34005;48.844;10.098;2023-05-20T20:13:27;96418.31;;;18.33;55.98
48216;BME280;34005;48.844;10.098;2023-05-20T20:15:55;96419.59;;;18.31;55.77
48216;BME280;34005;48.844;10.098;2023-05-20T20:18:24;96422.72;;;18.28;55.84
48216;BME280;34005;48.844;10.098;2023-05-20T20:20:53;96421.00;;;18.22;56.28
48216;BME280;34005;48.844;10.098;2023-05-20T20:23:21;96419.06;;;18.17;55.84
48216;BME280;34005;48.844;10.098;2023-05-20T20:25:48;96415.03;;;18.15;56.20
48216;BME280;34005;48.844;10.098;2023-05-20T20:28:16;96423.44;;;18.11;56.71
48216;BME280;34005;48.844;10.098;2023-05-20T20:30:44;96420.78;;;18.11;59.07
48216;BME280;34005;48.844;10.098;2023-05-20T20:33:11;96421.38;;;18.14;62.08
48216;BME280;34005;48.844;10.098;2023-05-20T20:35:39;96426.56;;;18.08;59.13
48216;BME280;34005;48.844;10.098;2023-05-20T20:38:08;96425.41;;;18.04;57.29
48216;BME280;34005;48.844;10.098;2023-05-20T20:40:37;96426.69;;;18.02;60.64
48216;BME280;34005;48.844;10.098;2023-05-20T20:43:08;96424.72;;;17.97;59.45
48216;BME280;34005;48.844;10.098;2023-05-20T20:45:36;96425.19;;;17.94;59.81
48216;BME280;34005;48.844;10.098;2023-05-20T20:48:04;96414.28;;;17.90;59.56
48216;BME280;34005;48.844;10.098;2023-05-20T20:50:34;96427.75;;;17.89;58.44
48216;BME280;34005;48.844;10.098;2023-05-20T20:53:01;96427.97;;;17.87;62.67
48216;BME280;34005;48.844;10.098;2023-05-20T20:55:30;96432.44;;;17.87;60.58
48216;BME280;34005;48.844;10.098;2023-05-20T20:58:00;96424.97;;;17.84;63.78
48216;BME280;34005;48.844;10.098;2023-05-20T21:00:28;96427.88;;;17.82;64.76
48216;BME280;34005;48.844;10.098;2023-05-20T21:02:56;96417.31;;;17.82;62.43
48216;BME280;34005;48.844;10.098;2023-05-20T21:05:23;96425.41;;;17.81;63.84
48216;BME280;34005;48.844;10.098;2023-05-20T21:07:52;96427.13;;;17.75;61.29
48216;BME280;34005;48.844;10.098;2023-05-20T21:10:24;96423.13;;;17.73;60.58
48216;BME280;34005;48.844;10.098;2023-05-20T21:12:56;96427.97;;;17.76;69.51
48216;BME280;34005;48.844;10.098;2023-05-20T21:15:24;96415.47;;;17.71;62.65
48216;BME280;34005;48.844;10.098;2023-05-20T21:17:52;96417.84;;;17.73;66.06
48216;BME280;34005;48.844;10.098;2023-05-20T21:20:21;96416.69;;;17.68;64.03
48216;BME280;34005;48.844;10.098;2023-05-20T21:22:49;96419.34;;;17.68;64.51
48216;BME280;34005;48.844;10.098;2023-05-20T21:25:17;96416.84;;;17.74;70.18
48216;BME280;34005;48.844;10.098;2023-05-20T21:27:45;96409.25;;;17.77;72.07
48216;BME280;34005;48.844;10.098;2023-05-20T21:30:14;96412.91;;;17.76;71.12
48216;BME280;34005;48.844;10.098;2023-05-20T21:32:42;96401.69;;;17.69;66.01
48216;BME280;34005;48.844;10.098;2023-05-20T21:35:10;96406.63;;;17.65;68.31
48216;BME280;34005;48.844;10.098;2023-05-20T21:37:38;96404.00;;;17.65;65.47
48216;BME280;34005;48.844;10.098;2023-05-20T21:40:07;96400.88;;;17.68;72.68
48216;BME280;34005;48.844;10.098;2023-05-20T21:42:34;96409.38;;;17.70;72.45
48216;BME280;34005;48.844;10.098;2023-05-20T21:45:04;96406.16;;;17.68;68.78
48216;BME280;34005;48.844;10.098;2023-05-20T21:47:33;96412.59;;;17.61;65.78
48216;BME280;34005;48.844;10.098;2023-05-20T21:50:04;96402.97;;;17.55;65.19
48216;BME280;34005;48.844;10.098;2023-05-20T21:52:32;96403.19;;;17.53;64.51
48216;BME280;34005;48.844;10.098;2023-05-20T21:55:00;96408.94;;;17.50;63.52
48216;BME280;34005;48.844;10.098;2023-05-20T21:57:27;96403.09;;;17.48;64.23
48216;BME280;34005;48.844;10.098;2023-05-20T21:59:55;96396.66;;;17.44;63.96
48216;BME280;34005;48.844;10.098;2023-05-20T22:02:25;96396.09;;;17.42;65.87
48216;BME280;34005;48.844;10.098;2023-05-20T22:04:54;96391.84;;;17.41;64.29
48216;BME280;34005;48.844;10.098;2023-05-20T22:07:23;96388.19;;;17.42;68.62
48216;BME280;34005;48.844;10.098;2023-05-20T22:09:50;96387.16;;;17.43;65.52
48216;BME280;34005;48.844;10.098;2023-05-20T22:12:18;96379.13;;;17.38;64.56
48216;BME280;34005;48.844;10.098;2023-05-20T22:14:47;96383.38;;;17.39;63.52
48216;BME280;34005;48.844;10.098;2023-05-20T22:17:15;96377.75;;;17.35;63.28
48216;BME280;34005;48.844;10.098;2023-05-20T22:19:43;96369.47;;;17.32;62.71
48216;BME280;34005;48.844;10.098;2023-05-20T22:22:14;96377.41;;;17.32;68.89
48216;BME280;34005;48.844;10.098;2023-05-20T22:24:42;96373.16;;;17.30;64.83
48216;BME280;34005;48.844;10.098;2023-05-20T22:27:09;96376.03;;;17.29;65.98
48216;BME280;34005;48.844;10.098;2023-05-20T22:29:37;96375.44;;;17.27;64.75
48216;BME280;34005;48.844;10.098;2023-05-20T22:32:05;96372.25;;;17.25;63.88
48216;BME280;34005;48.844;10.098;2023-05-20T22:34:34;96370.88;;;17.22;64.67
48216;BME280;34005;48.844;10.098;2023-05-20T22:37:01;96373.28;;;17.24;69.01
48216;BME280;34005;48.844;10.098;2023-05-20T22:39:31;96370.06;;;17.22;65.36
48216;BME280;34005;48.844;10.098;2023-05-20T22:41:59;96367.66;;;17.20;64.04
48216;BME280;34005;48.844;10.098;2023-05-20T22:44:27;96369.28;;;17.21;63.68
48216;BME280;34005;48.844;10.098;2023-05-20T22:46:55;96357.94;;;17.21;67.59
48216;BME280;34005;48.844;10.098;2023-05-20T22:49:23;96362.38;;;17.20;64.75
48216;BME280;34005;48.844;10.098;2023-05-20T22:51:53;96355.97;;;17.16;63.66
48216;BME280;34005;48.844;10.098;2023-05-20T22:54:21;96359.19;;;17.18;71.45
48216;BME280;34005;48.844;10.098;2023-05-20T22:56:50;96355.53;;;17.19;66.29
48216;BME280;34005;48.844;10.098;2023-05-20T22:59:22;96346.69;;;17.14;64.21
48216;BME280;34005;48.844;10.098;2023-05-20T23:01:50;96349.56;;;17.12;64.17
48216;BME280;34005;48.844;10.098;2023-05-20T23:04:18;96339.47;;;17.09;64.02
48216;BME280;34005;48.844;10.098;2023-05-20T23:06:45;96347.59;;;17.07;64.26
48216;BME280;34005;48.844;10.098;2023-05-20T23:09:13;96339.16;;;17.05;65.58
48216;BME280;34005;48.844;10.098;2023-05-20T23:11:40;96340.28;;;17.09;67.41
48216;BME280;34005;48.844;10.098;2023-05-20T23:14:09;96344.31;;;17.12;73.73
48216;BME280;34005;48.844;10.098;2023-05-20T23:16:37;96336.25;;;17.07;67.46
48216;BME280;34005;48.844;10.098;2023-05-20T23:19:07;96334.19;;;17.09;73.92
48216;BME280;34005;48.844;10.098;2023-05-20T23:21:35;96333.88;;;17.05;67.51
48216;BME280;34005;48.844;10.098;2023-05-20T23:24:04;96333.19;;;17.10;74.89
48216;BME280;34005;48.844;10.098;2023-05-20T23:26:32;96327.09;;;17.09;73.74
48216;BME280;34005;48.844;10.098;2023-05-20T23:29:03;96329.97;;;17.08;71.28
48216;BME280;34005;48.844;10.098;2023-05-20T23:31:32;96325.16;;;17.05;68.27
48216;BME280;34005;48.844;10.098;2023-05-20T23:34:00;96326.75;;;17.06;69.71
48216;BME280;34005;48.844;10.098;2023-05-20T23:36:29;96323.44;;;17.11;72.50
48216;BME280;34005;48.844;10.098;2023-05-20T23:39:00;96318.06;;;17.05;67.17
48216;BME280;34005;48.844;10.098;2023-05-20T23:41:27;96321.38;;;17.01;66.26
48216;BME280;34005;48.844;10.098;2023-05-20T23:43:55;96317.34;;;16.98;65.29
48216;BME280;34005;48.844;10.098;2023-05-20T23:46:23;96322.88;;;16.97;65.23
48216;BME280;34005;48.844;10.098;2023-05-20T23:48:52;96323.88;;;16.96;66.21
48216;BME280;34005;48.844;10.098;2023-05-20T23:51:20;96309.69;;;16.97;66.03
48216;BME280;34005;48.844;10.098;2023-05-20T23:53:48;96314.03;;;17.03;74.36
48216;BME280;34005;48.844;10.098;2023-05-20T23:56:15;96315.19;;;17.07;76.51
48216;BME280;34005;48.844;10.098;2023-05-20T23:58:43;96315.66;;;17.04;73.27
